Time;durP1;ratioP1;P1;durP2;ratioP2;P2;SDS_P1;SDS_P2;PMS_P1;PMS_P2;Temp;Humidity;BMP_temperature;BMP_pressure;BME280_temperature;BME280_humidity;BME280_pressure;Samples;Min_cycle;Max_cycle;Signal;HPM_P1;HPM_P2
2020/12/18 00:01:32;;;;;;;;;80.25;54.25;;;;;3.04;92.02;100893.97;5065340;28;8832;-60
2020/12/18 00:03:59;;;;;;;;;75.00;57.00;;;;;3.08;92.43;100900.09;5077066;28;8836;-61
2020/12/18 00:06:35;;;;;;;;;67.75;48.00;;;;;2.93;92.24;100894.97;5066081;28;8890;-62
2020/12/18 00:09:05;;;;;;;;;81.75;53.00;;;;;3.08;92.62;100897.44;5044691;28;8847;-60
2020/12/18 00:11:32;;;;;;;;;69.75;50.50;;;;;3.06;92.16;100893.94;5044887;28;8866;-61
2020/12/18 00:13:59;;;;;;;;;72.25;51.75;;;;;2.94;92.49;100894.06;5062655;28;8870;-62
2020/12/18 00:16:26;;;;;;;;;81.25;59.25;;;;;2.90;92.79;100889.69;5063068;28;8880;-62
2020/12/18 00:18:54;;;;;;;;;72.75;56.00;;;;;2.83;93.50;100900.38;5060628;28;8835;-62
2020/12/18 00:21:22;;;;;;;;;78.75;57.25;;;;;2.74;94.00;100895.19;5056719;28;8877;-60
2020/12/18 00:23:51;;;;;;;;;72.25;49.75;;;;;2.90;93.78;100897.66;5071522;28;8902;-61
2020/12/18 00:26:19;;;;;;;;;78.25;56.25;;;;;3.08;93.12;100894.78;5066055;28;8939;-62
2020/12/18 00:28:47;;;;;;;;;76.25;50.75;;;;;3.08;93.02;100901.00;5051537;28;8834;-62
2020/12/18 00:31:15;;;;;;;;;84.00;61.75;;;;;3.12;92.89;100898.31;5054844;28;8831;-60
2020/12/18 00:33:42;;;;;;;;;79.50;58.00;;;;;3.18;92.41;100912.38;5066222;28;8905;-59
2020/12/18 00:36:12;;;;;;;;;80.50;55.50;;;;;3.16;91.94;100906.22;5081221;28;8840;-61
2020/12/18 00:38:40;;;;;;;;;81.50;58.00;;;;;3.12;92.45;100900.97;5062990;28;8838;-58
2020/12/18 00:41:07;;;;;;;;;75.75;51.75;;;;;3.18;92.12;100904.41;5069649;28;8947;-61
2020/12/18 00:43:35;;;;;;;;;71.50;50.50;;;;;3.20;92.16;100904.41;5062798;28;8832;-60
2020/12/18 00:46:06;;;;;;;;;66.75;48.00;;;;;3.12;92.18;100909.78;5046995;28;8842;-62
2020/12/18 00:48:33;;;;;;;;;83.00;56.75;;;;;2.99;92.73;100909.03;5058076;28;8811;-60
2020/12/18 00:51:19;;;;;;;;;71.50;51.50;;;;;3.05;92.66;100910.75;5069362;28;8858;-61
2020/12/18 00:53:46;;;;;;;;;76.75;54.25;;;;;2.84;93.28;100918.06;5052940;28;8866;-60
2020/12/18 00:56:13;;;;;;;;;82.00;53.50;;;;;3.10;93.38;100913.34;5079673;28;8887;-62
2020/12/18 00:58:44;;;;;;;;;73.50;51.75;;;;;2.98;92.89;100919.69;5059129;28;8831;-62
2020/12/18 01:01:12;;;;;;;;;77.00;55.25;;;;;3.12;92.83;100922.19;5052403;28;8846;-62
2020/12/18 01:03:39;;;;;;;;;80.25;54.00;;;;;3.06;92.93;100920.47;5070700;28;9364;-61
2020/12/18 01:06:11;;;;;;;;;81.50;57.00;;;;;3.03;92.96;100921.41;5050754;28;9451;-61
2020/12/18 01:08:39;;;;;;;;;70.50;48.25;;;;;2.95;93.53;100917.03;5043327;28;8948;-61
2020/12/18 01:11:07;;;;;;;;;72.25;52.25;;;;;3.06;93.26;100924.00;5063606;28;8823;-60
2020/12/18 01:13:35;;;;;;;;;69.50;52.25;;;;;3.00;93.13;100925.84;5058541;28;8836;-62
2020/12/18 01:16:02;;;;;;;;;72.25;52.75;;;;;2.98;93.65;100927.66;5079900;28;8844;-62
2020/12/18 01:18:29;;;;;;;;;74.75;55.25;;;;;2.99;93.28;100924.09;5075064;28;8837;-62
2020/12/18 01:21:00;;;;;;;;;77.00;52.00;;;;;2.95;93.71;100923.25;5079546;28;8856;-61
2020/12/18 01:23:27;;;;;;;;;69.25;50.75;;;;;2.98;93.82;100919.69;5059419;28;8825;-60
2020/12/18 01:25:54;;;;;;;;;76.50;54.00;;;;;2.98;93.36;100923.22;5060901;28;8847;-60
2020/12/18 01:28:21;;;;;;;;;66.00;52.00;;;;;3.12;93.55;100920.41;5057358;28;8825;-62
2020/12/18 01:30:48;;;;;;;;;54.75;47.00;;;;;3.23;92.02;100918.50;5031847;28;8842;-62
2020/12/18 01:33:15;;;;;;;;;70.50;52.25;;;;;3.00;92.20;100925.84;5060456;28;8843;-62
2020/12/18 01:35:42;;;;;;;;;59.75;50.25;;;;;3.10;92.88;100921.31;5059247;28;8842;-60
2020/12/18 01:38:09;;;;;;;;;57.50;39.50;;;;;3.16;92.98;100921.25;5065575;28;8869;-59
2020/12/18 01:40:36;;;;;;;;;66.25;47.75;;;;;2.98;92.96;100925.00;5058332;28;8839;-62
2020/12/18 01:43:03;;;;;;;;;55.75;47.25;;;;;3.13;92.46;100924.81;5043420;28;8835;-60
2020/12/18 01:45:30;;;;;;;;;61.75;45.25;;;;;3.05;92.91;100921.34;5062356;28;8846;-61
2020/12/18 01:47:58;;;;;;;;;51.25;35.50;;;;;3.04;92.69;100916.97;5075961;28;8967;-62
2020/12/18 01:50:25;;;;;;;;;65.75;44.75;;;;;3.07;92.22;100920.44;5058397;28;8906;-61
2020/12/18 01:52:52;;;;;;;;;49.50;40.50;;;;;3.25;91.89;100922.03;5059792;28;8846;-61
2020/12/18 01:55:21;;;;;;;;;58.50;43.50;;;;;3.15;91.88;100923.03;5048030;28;8843;-60
2020/12/18 01:57:51;;;;;;;;;52.25;43.75;;;;;3.22;91.50;100927.38;5052326;28;8830;-61
2020/12/18 02:00:18;;;;;;;;;47.00;41.50;;;;;3.38;90.76;100922.75;5067495;28;8942;-62
2020/12/18 02:02:45;;;;;;;;;55.25;40.50;;;;;3.17;90.93;100934.50;5046180;28;8908;-62
2020/12/18 02:05:11;;;;;;;;;55.00;46.00;;;;;3.27;90.61;100924.66;5070934;28;8835;-60
2020/12/18 02:07:49;;;;;;;;;58.00;41.25;;;;;3.26;90.67;100922.91;5060133;28;8889;-62
2020/12/18 02:10:16;;;;;;;;;61.00;47.50;;;;;3.22;90.98;100926.50;5054999;28;8898;-62
2020/12/18 02:12:43;;;;;;;;;63.75;46.00;;;;;3.05;91.45;100926.66;5058632;28;8845;-61
2020/12/18 02:15:10;;;;;;;;;65.50;43.00;;;;;3.20;91.70;100929.16;5050485;28;8848;-61
2020/12/18 02:17:37;;;;;;;;;54.00;40.00;;;;;3.03;91.23;100931.13;5049837;28;8881;-60
2020/12/18 02:20:04;;;;;;;;;57.75;44.50;;;;;3.18;91.62;100930.94;5055914;28;8832;-60
2020/12/18 02:22:31;;;;;;;;;62.25;44.25;;;;;3.01;92.03;100932.91;5063994;28;8823;-61
2020/12/18 02:25:08;;;;;;;;;51.25;38.75;;;;;3.10;91.18;100932.81;5058041;28;8855;-61
2020/12/18 02:27:40;;;;;;;;;55.00;41.75;;;;;3.19;91.46;100927.41;5076834;28;8860;-62
2020/12/18 02:30:09;;;;;;;;;54.25;41.00;;;;;3.33;90.78;100923.72;5070493;28;8843;-59
2020/12/18 02:32:36;;;;;;;;;59.25;42.00;;;;;3.20;91.18;100931.81;5050493;28;8843;-61
2020/12/18 02:35:06;;;;;;;;;54.25;42.50;;;;;3.25;90.70;100927.31;5062631;28;8884;-62
2020/12/18 02:37:34;;;;;;;;;50.75;35.75;;;;;3.35;89.88;100933.41;5045078;28;8848;-61
2020/12/18 02:40:02;;;;;;;;;56.50;39.00;;;;;3.15;91.55;100928.31;5073014;28;8860;-60
2020/12/18 02:42:29;;;;;;;;;68.00;38.75;;;;;3.01;92.12;100927.63;5061952;28;8844;-60
2020/12/18 02:44:56;;;;;;;;;50.50;36.50;;;;;3.06;91.53;100925.78;5057471;28;8851;-61
2020/12/18 02:47:23;;;;;;;;;49.75;40.75;;;;;3.06;91.68;100926.66;5050824;28;8856;-61
2020/12/18 02:49:50;;;;;;;;;56.00;43.25;;;;;3.11;91.75;100923.97;5073225;28;8817;-60
2020/12/18 02:52:22;;;;;;;;;50.75;37.25;;;;;3.16;90.46;100924.78;5077005;28;8828;-62
2020/12/18 02:54:49;;;;;;;;;32.75;31.75;;;;;3.23;90.11;100918.50;5081928;28;8859;-61
2020/12/18 02:57:16;;;;;;;;;53.00;40.25;;;;;3.23;90.52;100918.50;5082492;28;8848;-62
2020/12/18 02:59:43;;;;;;;;;47.50;35.25;;;;;3.21;90.35;100920.31;5066983;28;8843;-61
2020/12/18 03:02:10;;;;;;;;;53.50;36.00;;;;;3.15;90.10;100924.81;5078847;28;8829;-62
2020/12/18 03:04:37;;;;;;;;;57.00;43.00;;;;;3.11;90.52;100933.69;5054848;28;8816;-62
2020/12/18 03:07:04;;;;;;;;;62.25;39.75;;;;;3.15;90.05;100935.41;5082750;28;9315;-61
2020/12/18 03:09:31;;;;;;;;;30.75;25.50;;;;;3.21;89.23;100935.34;5055304;28;8876;-60
2020/12/18 03:11:57;;;;;;;;;43.25;28.75;;;;;3.18;88.42;100940.69;5053512;28;8850;-59
2020/12/18 03:14:24;;;;;;;;;40.25;29.50;;;;;3.26;88.46;100944.13;5053677;28;8824;-63
2020/12/18 03:16:51;;;;;;;;;26.50;21.25;;;;;3.37;88.36;100941.34;5064370;28;8816;-61
2020/12/18 03:19:18;;;;;;;;;36.00;23.75;;;;;3.13;88.60;100938.06;5061478;28;8850;-61
2020/12/18 03:21:45;;;;;;;;;35.50;24.75;;;;;3.20;88.69;100934.47;5062241;28;8900;-61
2020/12/18 03:24:12;;;;;;;;;26.25;23.00;;;;;3.23;89.08;100934.41;5052415;28;8850;-61
2020/12/18 03:26:38;;;;;;;;;20.00;19.50;;;;;3.22;88.10;100931.81;5062218;28;8847;-61
2020/12/18 03:29:05;;;;;;;;;36.50;22.00;;;;;3.09;88.89;100928.41;5054653;28;8827;-61
2020/12/18 03:31:33;;;;;;;;;28.75;23.75;;;;;3.17;87.90;100934.50;5075818;28;9473;-62
2020/12/18 03:34:00;;;;;;;;;28.00;23.50;;;;;3.07;88.81;100927.53;5045784;28;8859;-63
2020/12/18 03:36:26;;;;;;;;;96.50;73.75;;;;;3.13;87.44;100924.81;5072663;28;8857;-61
2020/12/18 03:38:53;;;;;;;;;121.25;105.25;;;;;3.19;88.07;100929.19;5062416;28;8847;-61
2020/12/18 03:41:20;;;;;;;;;53.50;42.00;;;;;3.29;87.59;100931.72;5074683;28;8919;-61
2020/12/18 03:43:47;;;;;;;;;31.25;25.25;;;;;3.16;86.91;100932.75;5073684;28;8848;-61
2020/12/18 03:46:15;;;;;;;;;54.00;42.25;;;;;3.25;87.43;100932.63;5060463;28;8890;-61
2020/12/18 03:48:43;;;;;;;;;18.33;17.67;;;;;3.14;87.49;100937.19;5063212;28;8824;-60
2020/12/18 03:51:10;;;;;;;;;19.00;17.00;;;;;3.36;86.36;100929.84;5055929;28;8839;-60
2020/12/18 03:53:37;;;;;;;;;25.00;17.67;;;;;3.26;86.38;100938.81;5062255;28;8834;-61
2020/12/18 03:56:04;;;;;;;;;27.67;17.00;;;;;3.17;86.57;100942.47;5062683;28;8937;-59
2020/12/18 03:58:30;;;;;;;;;21.00;17.00;;;;;3.04;87.32;100944.38;5044611;28;8847;-61
2020/12/18 04:00:57;;;;;;;;;19.67;14.00;;;;;3.13;88.15;100954.00;5065450;28;8876;-60
2020/12/18 04:03:24;;;;;;;;;28.00;21.00;;;;;3.03;87.80;100942.63;5069745;28;9554;-60
2020/12/18 04:05:53;;;;;;;;;31.33;20.00;;;;;3.13;88.07;100955.78;5062301;28;8889;-62
2020/12/18 04:08:20;;;;;;;;;23.25;19.50;;;;;3.17;88.09;100950.44;5044945;28;8933;-60
2020/12/18 04:11:00;;;;;;;;;28.75;25.00;;;;;3.26;87.92;100955.63;5062172;28;8863;-60
2020/12/18 04:13:28;;;;;;;;;32.50;28.75;;;;;3.15;88.39;100952.22;5060892;28;8869;-61
2020/12/18 04:15:55;;;;;;;;;39.50;30.50;;;;;2.96;88.91;100950.66;5061676;28;8827;-60
2020/12/18 04:18:22;;;;;;;;;33.50;24.50;;;;;2.97;89.64;100958.56;5044041;28;8894;-59
2020/12/18 04:20:48;;;;;;;;;39.25;27.75;;;;;3.15;88.07;100960.16;5064431;28;8803;-60
2020/12/18 04:23:18;;;;;;;;;33.67;19.67;;;;;3.08;88.66;100962.03;5070045;28;8829;-60
2020/12/18 04:25:45;;;;;;;;;30.25;24.50;;;;;3.24;87.39;100962.75;5064220;28;8856;-59
2020/12/18 04:28:12;;;;;;;;;38.00;28.00;;;;;3.09;88.62;100957.59;5059819;28;8936;-59
2020/12/18 04:30:39;;;;;;;;;56.00;35.75;;;;;2.99;89.09;100971.84;5044198;28;8861;-60
2020/12/18 04:33:06;;;;;;;;;52.25;35.00;;;;;3.12;89.75;100972.59;5061423;28;8847;-60
2020/12/18 04:35:33;;;;;;;;;42.25;31.25;;;;;3.06;89.56;100973.56;5061952;28;8861;-60
2020/12/18 04:38:00;;;;;;;;;61.75;46.25;;;;;2.82;89.92;100969.38;5068580;28;8923;-60
2020/12/18 04:40:27;;;;;;;;;51.25;41.00;;;;;3.05;89.68;100966.47;5060280;28;8839;-60
2020/12/18 04:42:56;;;;;;;;;47.50;35.25;;;;;3.03;90.25;100970.94;5043416;28;8862;-60
2020/12/18 04:45:23;;;;;;;;;40.25;30.00;;;;;3.08;89.61;100967.34;5060883;28;8827;-59
2020/12/18 04:47:55;;;;;;;;;52.25;39.75;;;;;3.13;90.31;100972.56;5044170;28;8850;-60
2020/12/18 04:50:21;;;;;;;;;54.00;33.75;;;;;3.06;90.09;100974.41;5043726;28;9497;-60
2020/12/18 04:52:49;;;;;;;;;35.00;28.75;;;;;3.23;89.80;100976.00;5061224;28;8865;-60
2020/12/18 04:55:18;;;;;;;;;50.25;37.75;;;;;3.02;89.39;100975.34;5043572;28;8865;-60
2020/12/18 04:57:47;;;;;;;;;51.75;39.00;;;;;3.03;90.29;100974.47;5059739;28;9326;-59
2020/12/18 05:00:14;;;;;;;;;51.25;38.00;;;;;3.05;89.41;100972.69;5043360;28;8886;-60
2020/12/18 05:02:41;;;;;;;;;54.25;34.75;;;;;3.03;90.04;100978.91;5043135;28;9309;-59
2020/12/18 05:05:10;;;;;;;;;36.00;31.00;;;;;3.03;90.04;100978.91;5052026;28;8883;-59
2020/12/18 05:07:37;;;;;;;;;35.50;26.75;;;;;3.15;89.41;100977.88;5063642;28;9302;-60
2020/12/18 05:10:08;;;;;;;;;48.25;36.50;;;;;3.05;89.39;100982.38;5080910;28;8833;-61
2020/12/18 05:12:36;;;;;;;;;45.00;35.75;;;;;3.00;90.03;100984.19;5062628;28;8903;-60
2020/12/18 05:15:07;;;;;;;;;34.25;28.75;;;;;2.91;89.72;100985.19;5080245;28;8840;-60
2020/12/18 05:17:34;;;;;;;;;36.75;22.25;;;;;2.97;88.15;100984.22;5080884;28;8841;-60
2020/12/18 05:20:01;;;;;;;;;45.50;28.75;;;;;2.95;89.06;100991.31;5063318;28;8848;-60
2020/12/18 05:22:28;;;;;;;;;38.25;28.75;;;;;2.95;88.84;100986.91;5080457;28;8903;-59
2020/12/18 05:24:55;;;;;;;;;40.00;32.00;;;;;2.92;88.84;100983.41;5080946;28;8939;-60
2020/12/18 05:27:23;;;;;;;;;52.75;39.50;;;;;2.96;88.26;100978.06;5062779;28;8872;-60
2020/12/18 05:29:51;;;;;;;;;45.00;35.00;;;;;2.97;89.45;100985.09;5063095;28;8980;-61
2020/12/18 05:32:18;;;;;;;;;41.75;32.00;;;;;2.95;89.82;100986.91;5046640;28;8828;-62
2020/12/18 05:34:46;;;;;;;;;40.75;32.50;;;;;2.88;89.49;100987.00;5079249;28;8870;-61
2020/12/18 05:37:16;;;;;;;;;45.25;35.50;;;;;3.09;88.72;100984.13;5062891;28;8820;-59
2020/12/18 05:39:43;;;;;;;;;50.00;32.25;;;;;2.96;89.58;100995.75;5046552;28;8828;-60
2020/12/18 05:42:10;;;;;;;;;42.25;38.75;;;;;2.95;89.67;100992.22;5080037;28;8868;-62
2020/12/18 05:44:37;;;;;;;;;53.50;40.00;;;;;3.04;89.29;100988.59;5062442;28;8894;-60
2020/12/18 05:47:10;;;;;;;;;64.50;46.50;;;;;3.04;88.71;100994.78;5062746;28;8884;-61
2020/12/18 05:49:40;;;;;;;;;54.25;46.50;;;;;2.99;89.50;100993.94;5062632;28;8925;-60
2020/12/18 05:52:09;;;;;;;;;55.75;44.75;;;;;2.90;90.18;101003.75;5062942;28;8863;-60
2020/12/18 05:54:38;;;;;;;;;55.50;41.50;;;;;2.88;90.56;101001.13;5062735;28;8860;-59
2020/12/18 05:57:16;;;;;;;;;49.75;43.25;;;;;2.90;90.03;101009.06;5080207;28;8935;-61
2020/12/18 05:59:48;;;;;;;;;60.25;47.75;;;;;2.85;90.54;101001.16;5062784;28;8868;-61
2020/12/18 06:02:17;;;;;;;;;47.50;34.75;;;;;3.00;89.61;101008.97;5079070;28;8841;-60
2020/12/18 06:04:46;;;;;;;;;67.00;47.00;;;;;3.01;89.47;101009.84;5057436;28;9249;-60
2020/12/18 06:07:16;;;;;;;;;69.00;47.50;;;;;3.01;89.95;101023.13;5060157;28;9518;-61
2020/12/18 06:09:45;;;;;;;;;72.75;54.75;;;;;2.76;90.27;101019.78;5043162;28;8859;-61
2020/12/18 06:12:13;;;;;;;;;74.00;56.25;;;;;2.94;90.55;101016.97;5042333;28;8858;-61
2020/12/18 06:14:45;;;;;;;;;91.75;64.75;;;;;3.10;90.22;101022.16;5042660;28;8885;-61
2020/12/18 06:17:12;;;;;;;;;89.00;58.00;;;;;2.97;90.53;101022.25;5042744;28;8959;-60
2020/12/18 06:19:43;;;;;;;;;86.00;58.00;;;;;2.85;91.03;101017.06;5060096;28;8857;-61
2020/12/18 06:22:12;;;;;;;;;82.75;58.50;;;;;2.92;90.95;101028.50;5042504;28;8839;-61
2020/12/18 06:24:42;;;;;;;;;77.75;58.00;;;;;2.90;91.21;101028.53;5060004;28;8878;-61
2020/12/18 06:27:19;;;;;;;;;96.75;71.25;;;;;2.90;90.47;101028.53;5059323;28;8863;-61
2020/12/18 06:29:49;;;;;;;;;73.00;52.25;;;;;3.01;90.74;101034.59;5046398;28;8862;-60
2020/12/18 06:32:34;;;;;;;;;73.75;54.50;;;;;3.05;90.30;101035.44;5030164;28;8851;-61
2020/12/18 06:35:35;;;;;;;;;63.50;45.75;;;;;2.82;90.84;101039.19;5046627;28;8953;-61
2020/12/18 06:38:15;;;;;;;;;82.25;57.75;;;;;2.88;90.69;101048.00;5063706;28;8835;-61
2020/12/18 06:40:43;;;;;;;;;80.00;58.75;;;;;3.00;90.75;101047.88;5063723;28;9035;-59
2020/12/18 06:43:10;;;;;;;;;82.50;63.50;;;;;3.05;90.78;101052.28;5045680;28;8874;-59
2020/12/18 06:45:37;;;;;;;;;86.50;63.50;;;;;3.16;90.12;101062.78;5063145;28;8835;-61
2020/12/18 06:48:27;;;;;;;;;82.50;59.50;;;;;3.06;90.85;101054.03;5045935;28;8936;-61
2020/12/18 06:50:54;;;;;;;;;79.00;61.75;;;;;2.93;90.51;101051.50;5045920;28;8917;-60
2020/12/18 06:53:21;;;;;;;;;88.50;59.00;;;;;2.96;90.76;101056.75;5046096;28;8839;-61
2020/12/18 06:55:48;;;;;;;;;84.50;61.50;;;;;3.10;91.22;101059.28;5063455;28;8965;-60
2020/12/18 06:58:19;;;;;;;;;87.25;61.25;;;;;2.97;90.91;101059.38;5063098;28;8862;-61
2020/12/18 07:00:49;;;;;;;;;54.00;37.75;;;;;2.92;91.09;101057.66;5045780;28;8847;-60
2020/12/18 07:03:39;;;;;;;;;77.00;59.00;;;;;2.83;91.50;101064.81;5045860;28;8861;-60
2020/12/18 07:06:27;;;;;;;;;62.50;47.50;;;;;2.85;91.65;101067.47;5061859;28;8891;-60
2020/12/18 07:08:59;;;;;;;;;60.00;39.25;;;;;2.90;91.71;101068.31;5065916;28;8856;-60
2020/12/18 07:11:31;;;;;;;;;69.75;46.50;;;;;2.91;91.61;101074.50;5065777;28;8856;-61
2020/12/18 07:14:00;;;;;;;;;45.00;36.75;;;;;2.98;91.22;101070.91;5065153;28;8856;-61
2020/12/18 07:16:27;;;;;;;;;60.25;43.25;;;;;2.94;91.85;101069.16;5065513;28;8986;-60
2020/12/18 07:18:59;;;;;;;;;68.25;47.50;;;;;2.85;91.66;101073.66;5065043;28;8872;-60
2020/12/18 07:21:27;;;;;;;;;47.25;38.50;;;;;2.93;92.11;101078.91;5065356;28;8855;-61
2020/12/18 07:23:54;;;;;;;;;61.25;46.00;;;;;2.74;91.81;101069.28;5082900;28;8844;-60
2020/12/18 07:26:21;;;;;;;;;59.50;43.00;;;;;2.72;92.26;101074.63;5082900;28;8887;-61
2020/12/18 07:28:49;;;;;;;;;62.75;44.75;;;;;2.90;92.14;101070.06;5064896;28;8856;-60
2020/12/18 07:31:23;;;;;;;;;62.25;43.00;;;;;2.96;92.41;101072.69;5064713;28;8864;-61
2020/12/18 07:34:00;;;;;;;;;55.75;39.00;;;;;2.95;92.02;101073.56;5082816;28;8841;-61
2020/12/18 07:36:30;;;;;;;;;69.75;47.75;;;;;2.98;92.60;101081.53;5065372;28;8840;-61
2020/12/18 07:38:58;;;;;;;;;55.50;40.00;;;;;2.95;92.33;101078.88;5064516;28;8852;-60
2020/12/18 07:41:29;;;;;;;;;64.75;46.25;;;;;2.96;91.70;101072.69;5082327;28;8859;-59
2020/12/18 07:44:08;;;;;;;;;67.25;45.50;;;;;3.07;91.02;101071.69;5081332;28;8832;-60
2020/12/18 07:46:36;;;;;;;;;69.75;47.75;;;;;3.01;90.93;101074.41;5065009;28;8856;-60
2020/12/18 07:49:10;;;;;;;;;72.00;53.50;;;;;2.84;91.31;101068.34;5082122;28;8852;-61
2020/12/18 07:51:38;;;;;;;;;80.75;52.50;;;;;2.86;91.68;101075.38;5064974;28;8844;-60
2020/12/18 07:54:06;;;;;;;;;72.75;49.50;;;;;3.12;91.22;101074.31;5082165;27;8848;-60
2020/12/18 07:56:33;;;;;;;;;64.50;46.75;;;;;3.03;91.15;101079.72;5064800;28;8987;-60
2020/12/18 07:59:05;;;;;;;;;63.00;49.00;;;;;3.29;90.05;101077.72;5065356;28;8853;-60
2020/12/18 08:01:36;;;;;;;;;68.25;49.50;;;;;3.15;89.74;101079.59;5048841;28;8851;-61
2020/12/18 08:04:11;;;;;;;;;77.50;52.00;;;;;3.16;89.78;101084.03;5082309;28;8917;-60
2020/12/18 08:06:40;;;;;;;;;65.75;47.25;;;;;3.30;89.61;101087.41;5044674;28;8881;-61
2020/12/18 08:09:13;;;;;;;;;61.75;40.25;;;;;3.23;89.88;101083.03;5061216;28;8871;-61
2020/12/18 08:11:52;;;;;;;;;48.25;35.50;;;;;3.31;89.31;101096.25;5044184;28;8854;-61
2020/12/18 08:14:19;;;;;;;;;41.00;33.00;;;;;3.40;88.87;101095.31;5061270;28;8985;-61
2020/12/18 08:16:46;;;;;;;;;46.00;32.25;;;;;3.33;88.95;101093.59;5044623;28;8831;-61
2020/12/18 08:19:13;;;;;;;;;57.75;42.00;;;;;3.14;90.24;101093.75;5060636;28;8894;-60
2020/12/18 08:21:46;;;;;;;;;83.00;60.25;;;;;3.36;88.92;101098.88;5044397;28;8858;-60
2020/12/18 08:24:35;;;;;;;;;51.00;36.25;;;;;3.21;89.34;101106.09;5060825;28;8823;-61
2020/12/18 08:27:22;;;;;;;;;41.75;31.75;;;;;3.33;88.48;101109.53;5044143;28;8891;-60
2020/12/18 08:29:50;;;;;;;;;33.33;32.33;;;;;3.36;88.29;101106.84;5060495;28;8945;-60
2020/12/18 08:32:28;;;;;;;;;49.50;35.75;;;;;3.32;87.62;101107.75;5044373;28;8899;-61
2020/12/18 08:35:04;;;;;;;;;56.75;39.25;;;;;3.30;87.88;101111.31;5043785;28;8843;-61
2020/12/18 08:37:31;;;;;;;;;44.75;35.50;;;;;3.35;87.55;101107.75;5044498;28;8843;-60
2020/12/18 08:39:58;;;;;;;;;48.75;39.75;;;;;3.10;87.96;101099.97;5044268;28;8855;-61
2020/12/18 08:42:26;;;;;;;;;74.25;55.25;;;;;3.46;87.59;101105.84;5060563;28;8941;-61
2020/12/18 08:44:53;;;;;;;;;48.75;38.50;;;;;3.35;87.89;101111.28;5060624;28;8869;-60
2020/12/18 08:47:26;;;;;;;;;53.25;40.75;;;;;3.46;87.37;101105.84;5060862;28;8846;-61
2020/12/18 08:49:57;;;;;;;;;50.25;36.25;;;;;3.19;88.35;101107.88;5060085;28;8851;-59
2020/12/18 08:52:29;;;;;;;;;103.75;75.75;;;;;3.26;87.49;101108.69;5060033;28;8857;-61
2020/12/18 08:55:07;;;;;;;;;76.00;48.50;;;;;3.49;87.34;101108.47;5061278;28;9237;-60
2020/12/18 08:57:38;;;;;;;;;42.00;31.25;;;;;3.66;86.16;101113.59;5060381;28;8843;-59
2020/12/18 09:00:09;;;;;;;;;37.00;34.25;;;;;3.37;87.54;101114.81;5044414;28;8859;-61
2020/12/18 09:02:58;;;;;;;;;50.00;43.50;;;;;3.26;88.13;101119.28;5043597;28;8932;-60
2020/12/18 09:05:32;;;;;;;;;61.00;43.50;;;;;3.42;87.59;101114.72;5060026;28;9261;-61
2020/12/18 09:08:04;;;;;;;;;101.25;68.50;;;;;3.44;87.47;101112.94;5043371;28;8873;-62
2020/12/18 09:10:59;;;;;;;;;78.25;58.00;;;;;3.45;87.58;101122.66;5060780;28;8854;-60
2020/12/18 09:13:30;;;;;;;;;74.50;54.00;;;;;3.22;88.01;101118.47;5060701;28;8985;-62
2020/12/18 09:16:00;;;;;;;;;69.75;50.50;;;;;3.38;87.93;101126.28;5060847;28;9508;-61
2020/12/18 09:18:34;;;;;;;;;95.50;67.75;;;;;3.16;88.14;101125.56;5043336;28;8843;-61
2020/12/18 09:21:17;;;;;;;;;55.00;46.50;;;;;3.18;88.28;101122.00;5060153;28;8867;-62
2020/12/18 09:23:46;;;;;;;;;48.25;32.75;;;;;3.14;89.67;101120.28;5059661;28;8905;-60
2020/12/18 09:26:28;;;;;;;;;47.75;35.00;;;;;3.25;89.04;101121.06;5043975;28;8877;-61
2020/12/18 09:28:55;;;;;;;;;53.25;38.50;;;;;3.32;88.80;101119.25;5043321;28;8931;-61
2020/12/18 09:31:25;;;;;;;;;40.25;30.50;;;;;3.22;88.42;101115.81;5059657;28;8875;-62
2020/12/18 09:33:52;;;;;;;;;74.00;50.50;;;;;3.16;88.05;101121.16;5059398;28;8887;-61
2020/12/18 09:36:19;;;;;;;;;74.25;51.25;;;;;3.23;88.24;101127.28;5059389;28;8850;-61
2020/12/18 09:38:52;;;;;;;;;63.00;46.50;;;;;3.24;88.76;101119.34;5059582;28;8835;-60
2020/12/18 09:41:22;;;;;;;;;54.00;37.00;;;;;3.30;88.35;101127.22;5059275;28;8859;-61
2020/12/18 09:43:50;;;;;;;;;48.25;31.00;;;;;3.43;88.25;101127.13;5043046;28;8831;-61
2020/12/18 09:46:23;;;;;;;;;43.67;32.33;;;;;3.29;88.13;101114.88;5060251;28;9224;-61
2020/12/18 09:48:50;;;;;;;;;35.33;29.00;;;;;3.40;87.61;101119.19;5043335;28;8945;-61
2020/12/18 09:51:18;;;;;;;;;40.33;26.33;;;;;3.36;88.05;101117.44;5042598;28;8927;-60
2020/12/18 09:53:48;;;;;;;;;90.50;69.00;;;;;3.26;88.13;101119.28;5059288;28;8924;-60
2020/12/18 09:56:17;;;;;;;;;70.50;51.75;;;;;3.34;88.01;101119.22;5042762;28;8953;-61
2020/12/18 09:58:46;;;;;;;;;48.00;32.75;;;;;3.30;87.50;101113.09;5043762;28;9769;-60
2020/12/18 10:01:20;;;;;;;;;43.25;30.25;;;;;3.33;86.92;101112.19;5042623;28;8854;-60
2020/12/18 10:03:51;;;;;;;;;35.33;23.67;;;;;3.30;87.18;101110.44;5063657;28;8862;-61
2020/12/18 10:06:25;;;;;;;;;39.00;31.25;;;;;3.35;87.62;101113.06;5046976;28;8847;-61
2020/12/18 10:08:53;;;;;;;;;40.00;31.75;;;;;3.47;87.37;101118.22;5063491;28;8882;-60
2020/12/18 10:11:27;;;;;;;;;50.00;34.25;;;;;3.39;87.50;101114.75;5062568;28;8851;-61
2020/12/18 10:13:54;;;;;;;;;55.00;43.75;;;;;3.42;86.36;101114.72;5063978;28;8980;-62
2020/12/18 10:16:21;;;;;;;;;50.50;39.25;;;;;3.71;86.26;101118.00;5064126;28;8913;-61
2020/12/18 10:18:48;;;;;;;;;61.25;42.00;;;;;3.37;86.69;101116.53;5063809;28;8823;-61
2020/12/18 10:21:15;;;;;;;;;72.75;49.25;;;;;3.51;87.22;101119.97;5063691;28;8913;-61
2020/12/18 10:23:42;;;;;;;;;45.75;36.00;;;;;3.46;86.33;101121.78;5064042;28;8960;-60
2020/12/18 10:26:09;;;;;;;;;56.75;37.50;;;;;3.58;86.39;101116.38;5062495;28;8847;-60
2020/12/18 10:28:38;;;;;;;;;42.50;29.00;;;;;3.55;86.42;101119.03;5063634;28;8850;-60
2020/12/18 10:31:05;;;;;;;;;75.75;57.75;;;;;3.50;86.62;101118.19;5063672;28;8839;-63
2020/12/18 10:33:35;;;;;;;;;64.00;51.00;;;;;3.55;87.08;101116.38;5063637;28;8834;-61
2020/12/18 10:36:02;;;;;;;;;34.67;24.00;;;;;3.68;86.72;101123.31;5063815;28;8867;-61
2020/12/18 10:38:29;;;;;;;;;20.67;18.00;;;;;3.66;85.85;101109.19;5046330;28;9255;-61
2020/12/18 10:40:57;;;;;;;;;26.00;18.33;;;;;3.91;86.29;101111.59;5061895;28;9243;-60
2020/12/18 10:43:23;;;;;;;;;27.00;22.33;;;;;3.68;86.78;101112.69;5046308;28;8934;-61
2020/12/18 10:45:51;;;;;;;;;26.33;17.67;;;;;3.84;86.62;101109.88;5063150;28;8869;-61
2020/12/18 10:48:18;;;;;;;;;29.67;24.33;;;;;3.87;85.78;101102.78;5063046;28;8851;-61
2020/12/18 10:50:44;;;;;;;;;38.00;30.00;;;;;3.74;84.54;101099.38;5045726;28;8889;-61
2020/12/18 10:53:11;;;;;;;;;50.25;37.75;;;;;3.86;85.58;101105.44;5062449;28;8839;-61
2020/12/18 10:55:39;;;;;;;;;37.50;30.50;;;;;3.91;84.77;101099.16;5061923;28;8835;-60
2020/12/18 10:58:05;;;;;;;;;38.33;30.67;;;;;3.87;84.43;101096.56;5062794;28;8900;-60
2020/12/18 11:00:32;;;;;;;;;35.67;29.33;;;;;3.68;83.99;101102.06;5045960;28;8988;-60
2020/12/18 11:02:59;;;;;;;;;35.67;23.67;;;;;3.59;85.51;101102.19;5063415;28;8909;-60
2020/12/18 11:05:28;;;;;;;;;63.75;47.00;;;;;3.86;85.30;101100.13;5065894;28;8882;-60
2020/12/18 11:07:55;;;;;;;;;82.75;54.25;;;;;3.94;85.78;101092.94;5076795;28;8809;-60
2020/12/18 11:10:21;;;;;;;;;51.00;35.00;;;;;3.90;84.75;101093.91;5062608;28;8881;-61
2020/12/18 11:12:48;;;;;;;;;46.00;38.25;;;;;3.63;86.22;101082.66;5062027;28;8965;-60
2020/12/18 11:15:15;;;;;;;;;44.33;35.00;;;;;3.68;86.44;101088.78;5062398;28;8916;-60
2020/12/18 11:17:42;;;;;;;;;68.25;50.75;;;;;3.61;87.32;101084.47;5063101;28;8874;-60
2020/12/18 11:20:09;;;;;;;;;74.25;57.00;;;;;3.73;87.28;101084.31;5045440;28;8937;-61
2020/12/18 11:22:36;;;;;;;;;50.00;35.25;;;;;3.48;87.21;101080.19;5045988;28;8916;-61
2020/12/18 11:25:04;;;;;;;;;44.25;33.75;;;;;3.62;87.39;101080.91;5062751;28;8875;-60
2020/12/18 11:27:32;;;;;;;;;32.67;27.00;;;;;3.86;86.21;101077.09;5050870;28;8863;-61
2020/12/18 11:29:58;;;;;;;;;29.67;21.00;;;;;3.92;88.97;101078.78;5044325;28;8881;-59
2020/12/18 11:32:25;;;;;;;;;22.67;21.67;;;;;3.60;88.84;101074.72;5081654;28;8845;-61
2020/12/18 11:34:52;;;;;;;;;94.25;68.75;;;;;3.61;88.79;101071.19;5082388;28;8852;-60